Time;durP1;ratioP1;P1;durP2;ratioP2;P2;SDS_P1;SDS_P2;PMS_P1;PMS_P2;Temp;Humidity;BMP_temperature;BMP_pressure;BME280_temperature;BME280_humidity;BME280_pressure;Samples;Min_cycle;Max_cycle;Signal;HPM_P1;HPM_P2
2024/01/30 00:00:59;;;;;;;31.20;10.00;;;;;;;1.43;81.42;101895.73;108172;1271;22590;-77
2024/01/30 00:03:53;;;;;;;32.80;11.70;;;;;;;1.42;81.54;101899.90;107981;1271;22658;-74
2024/01/30 00:06:45;;;;;;;31.50;11.00;;;;;;;1.41;81.59;101899.95;108033;1267;22531;-74
2024/01/30 00:09:36;;;;;;;29.20;11.60;;;;;;;1.38;81.45;101899.47;108057;1271;23049;-75
2024/01/30 00:12:27;;;;;;;32.60;11.70;;;;;;;1.37;81.53;101904.23;108001;1271;25591;-75
2024/01/30 00:15:18;;;;;;;31.90;10.90;;;;;;;1.35;81.66;101901.08;108024;1271;22570;-75
2024/01/30 00:18:09;;;;;;;31.70;11.00;;;;;;;1.34;81.69;101899.02;108080;1271;24248;-76
2024/01/30 00:21:00;;;;;;;32.60;11.80;;;;;;;1.33;81.64;101895.77;107994;1271;22642;-77
2024/01/30 00:23:51;;;;;;;38.10;12.60;;;;;;;1.32;81.70;101896.02;108086;1269;24337;-75
2024/01/30 00:26:41;;;;;;;35.20;13.60;;;;;;;1.30;81.75;101895.36;108020;1256;22531;-76
2024/01/30 00:29:33;;;;;;;35.40;13.30;;;;;;;1.29;81.73;101893.06;107979;1271;22538;-75
2024/01/30 00:32:24;;;;;;;35.20;12.80;;;;;;;1.27;81.69;101892.17;108051;1271;25476;-78
2024/01/30 00:35:15;;;;;;;37.00;12.40;;;;;;;1.26;81.70;101899.39;108062;1271;22540;-76
2024/01/30 00:38:07;;;;;;;39.40;14.30;;;;;;;1.23;81.61;101902.36;107857;1271;22535;-78
2024/01/30 00:40:58;;;;;;;35.00;12.60;;;;;;;1.22;81.65;101906.97;107954;1272;25315;-77
2024/01/30 00:43:49;;;;;;;33.10;14.10;;;;;;;1.19;81.51;101910.31;107903;1272;23381;-76
2024/01/30 00:46:40;;;;;;;31.40;12.10;;;;;;;1.14;81.65;101908.38;107876;1271;25508;-75
2024/01/30 00:49:29;;;;;;;;;;;;;;;1.13;81.63;101904.13;108284;1270;23870;-76
2024/01/30 00:52:20;;;;;;;28.40;11.50;;;;;;;1.10;81.68;101910.19;108047;1270;22626;-76
2024/01/30 00:55:11;;;;;;;29.10;11.80;;;;;;;1.07;81.70;101907.58;108038;1271;25689;-76
2024/01/30 00:58:02;;;;;;;32.10;12.90;;;;;;;1.04;81.51;101909.83;107935;1271;22740;-76
2024/01/30 01:00:53;;;;;;;36.30;13.80;;;;;;;1.01;81.56;101915.05;107996;1271;24209;-77
2024/01/30 01:03:44;;;;;;;34.20;13.00;;;;;;;0.97;81.57;101907.77;107922;1263;22732;-77
2024/01/30 01:06:35;;;;;;;33.80;12.00;;;;;;;0.94;81.68;101905.23;108004;1269;22593;-77
2024/01/30 01:09:27;;;;;;;28.40;10.70;;;;;;;0.91;81.78;101901.71;108036;1271;22771;-75
2024/01/30 01:12:18;;;;;;;30.80;10.60;;;;;;;0.89;81.67;101900.11;108012;1271;24691;-75
2024/01/30 01:15:11;;;;;;;32.40;12.50;;;;;;;0.86;81.77;101899.45;108013;1266;24523;-76
2024/01/30 01:18:02;;;;;;;28.00;9.60;;;;;;;0.83;81.62;101896.42;108920;1271;22637;-73
2024/01/30 01:20:53;;;;;;;22.90;9.50;;;;;;;0.78;81.62;101899.36;108087;1271;25319;-74
2024/01/30 01:23:44;;;;;;;27.60;9.40;;;;;;;0.73;81.43;101903.30;107981;1271;22575;-75
2024/01/30 01:26:34;;;;;;;30.30;9.00;;;;;;;0.67;81.52;101902.20;108058;1270;22531;-75
2024/01/30 01:29:28;;;;;;;30.30;10.60;;;;;;;0.65;81.71;101900.27;108124;1267;22647;-76
2024/01/30 01:32:19;;;;;;;32.60;12.70;;;;;;;0.62;81.78;101897.96;107960;1271;22566;-77
2024/01/30 01:35:10;;;;;;;32.80;11.70;;;;;;;0.61;81.68;101894.86;108058;1263;25435;-78
2024/01/30 01:38:02;;;;;;;34.10;12.00;;;;;;;0.58;81.82;101897.83;108086;1256;22527;-77
2024/01/30 01:40:53;;;;;;;31.80;10.50;;;;;;;0.57;81.67;101900.80;108025;1271;23720;-77
2024/01/30 01:43:44;;;;;;;29.60;10.80;;;;;;;0.53;81.73;101896.88;108000;1272;25077;-77
2024/01/30 01:46:36;;;;;;;32.40;10.40;;;;;;;0.51;81.77;101895.05;107973;1271;23337;-75
2024/01/30 01:49:28;;;;;;;32.30;11.30;;;;;;;0.48;81.83;101894.14;107993;1270;22587;-76
2024/01/30 01:52:20;;;;;;;35.40;12.10;;;;;;;0.44;81.90;101893.69;108024;1271;22517;-75
2024/01/30 01:55:12;;;;;;;30.90;11.70;;;;;;;0.40;81.99;101888.38;108006;1271;25363;-75
2024/01/30 01:58:03;;;;;;;36.70;12.60;;;;;;;0.38;81.89;101892.51;108126;1264;22545;-77
2024/01/30 02:00:54;;;;;;;38.80;12.50;;;;;;;0.37;82.03;101892.56;108004;1270;22571;-75
2024/01/30 02:03:46;;;;;;;37.40;12.60;;;;;;;0.34;82.14;101897.61;107811;1271;23672;-75
2024/01/30 02:06:38;;;;;;;36.30;12.70;;;;;;;0.31;82.05;101895.30;107983;1271;22567;-75
2024/01/30 02:09:29;;;;;;;36.20;13.00;;;;;;;0.29;82.22;101894.08;108052;1271;24337;-75
2024/01/30 02:12:20;;;;;;;41.60;12.70;;;;;;;0.27;82.15;101892.79;107978;1271;23004;-75
2024/01/30 02:15:14;;;;;;;35.90;10.40;;;;;;;0.25;82.28;101894.81;107965;1271;28128;-77
2024/01/30 02:18:05;;;;;;;32.20;10.50;;;;;;;0.23;82.15;101892.04;108041;1271;22547;-75
2024/01/30 02:21:01;;;;;;;33.20;9.70;;;;;;;0.21;82.16;101891.05;108046;1269;22537;-75
2024/01/30 02:23:53;;;;;;;32.10;11.10;;;;;;;0.19;82.35;101894.64;108219;1269;23112;-76
2024/01/30 02:26:45;;;;;;;33.10;11.20;;;;;;;0.17;82.34;101889.66;107939;1267;24187;-74
2024/01/30 02:29:37;;;;;;;34.10;11.80;;;;;;;0.14;82.43;101893.69;107917;1271;22728;-75
2024/01/30 02:32:28;;;;;;;38.90;12.40;;;;;;;0.11;82.39;101888.71;107884;1271;22748;-75
2024/01/30 02:35:19;;;;;;;39.30;14.50;;;;;;;0.09;82.54;101882.27;107852;1264;22534;-77
2024/01/30 02:38:10;;;;;;;43.70;14.90;;;;;;;0.08;82.67;101888.19;107956;1263;22534;-76
2024/01/30 02:41:02;;;;;;;51.80;17.00;;;;;;;0.05;82.77;101888.06;107942;1271;22702;-76
2024/01/30 02:43:53;;;;;;;49.50;17.00;;;;;;;0.04;82.90;101889.75;107936;1271;25226;-75
2024/01/30 02:46:44;;;;;;;45.60;17.20;;;;;;;-0.00;82.81;101890.95;107895;1271;22663;-75
2024/01/30 02:49:35;;;;;;;36.30;13.60;;;;;;;-0.03;82.83;101889.73;107915;1271;22620;-75
2024/01/30 02:52:26;;;;;;;40.60;14.00;;;;;;;-0.03;82.86;101888.95;107964;1260;22647;-75
2024/01/30 02:55:18;;;;;;;38.40;12.20;;;;;;;-0.05;83.04;101888.45;108051;1271;22674;-75
2024/01/30 02:58:08;;;;;;;42.80;14.40;;;;;;;-0.06;83.06;101889.28;109579;1271;22551;-76
2024/01/30 03:01:00;;;;;;;40.80;13.80;;;;;;;-0.08;83.15;101885.98;108013;1266;22536;-74
2024/01/30 03:03:51;;;;;;;39.40;14.50;;;;;;;-0.08;83.25;101882.66;108091;1269;22574;-74
2024/01/30 03:06:47;;;;;;;42.50;15.70;;;;;;;-0.12;83.14;101881.89;108072;1270;24189;-75
2024/01/30 03:09:39;;;;;;;37.60;14.10;;;;;;;-0.15;83.11;101883.82;107756;1271;25448;-75
2024/01/30 03:12:30;;;;;;;53.00;19.60;;;;;;;-0.17;83.25;101882.37;107929;1271;24819;-75
2024/01/30 03:15:22;;;;;;;48.20;17.90;;;;;;;-0.18;83.22;101884.14;107893;1271;22595;-74
2024/01/30 03:18:14;;;;;;;51.20;20.40;;;;;;;-0.19;83.32;101880.29;107972;1265;22605;-75
2024/01/30 03:21:03;;;;;;;;;;;;;;;-0.21;83.34;101880.71;107915;1267;23867;-76
2024/01/30 03:23:54;;;;;;;47.10;17.10;;;;;;;-0.24;83.25;101881.94;107909;1271;22587;-74
2024/01/30 03:26:46;;;;;;;47.40;17.50;;;;;;;-0.25;83.43;101876.73;108017;1271;22624;-74
2024/01/30 03:29:36;;;;;;;47.20;16.50;;;;;;;-0.26;83.57;101879.54;107999;1270;24384;-77
2024/01/30 03:32:27;;;;;;;52.20;16.90;;;;;;;-0.28;83.50;101883.66;108040;1263;23096;-79
2024/01/30 03:35:19;;;;;;;52.10;17.70;;;;;;;-0.29;83.74;101880.20;107937;1270;22696;-75
2024/01/30 03:38:10;;;;;;;54.00;17.70;;;;;;;-0.30;83.75;101869.67;107866;1271;24523;-76
2024/01/30 03:41:01;;;;;;;58.60;21.70;;;;;;;-0.31;83.65;101875.46;107826;1271;22785;-74
2024/01/30 03:43:52;;;;;;;58.70;21.30;;;;;;;-0.32;83.79;101876.38;107890;1272;23928;-76
2024/01/30 03:46:43;;;;;;;53.10;18.20;;;;;;;-0.31;83.81;101869.34;107889;1271;22533;-76
2024/01/30 03:49:34;;;;;;;59.40;19.10;;;;;;;-0.30;83.97;101863.16;107920;1271;25240;-76
2024/01/30 03:52:25;;;;;;;44.70;19.00;;;;;;;-0.29;83.90;101863.11;107936;1271;22566;-76
2024/01/30 03:55:16;;;;;;;62.80;21.80;;;;;;;-0.32;83.81;101867.30;107923;1271;22538;-76
2024/01/30 03:58:07;;;;;;;61.20;22.90;;;;;;;-0.32;83.87;101873.89;107972;1271;22579;-75
2024/01/30 04:00:58;;;;;;;66.40;24.70;;;;;;;-0.31;84.02;101873.25;107997;1264;22798;-76
2024/01/30 04:03:50;;;;;;;72.60;26.00;;;;;;;-0.31;84.00;101875.54;107984;1271;22632;-77
2024/01/30 04:06:41;;;;;;;67.10;24.10;;;;;;;-0.33;83.74;101870.63;107910;1271;22542;-77
2024/01/30 04:09:32;;;;;;;67.80;23.30;;;;;;;-0.34;83.87;101870.16;107947;1271;23132;-76
2024/01/30 04:12:24;;;;;;;72.30;27.30;;;;;;;-0.35;83.89;101868.80;108040;1266;22583;-76
2024/01/30 04:15:16;;;;;;;96.30;35.40;;;;;;;-0.37;83.90;101863.20;107898;1271;22784;-77
2024/01/30 04:18:07;;;;;;;106.40;39.10;;;;;;;-0.39;83.74;101862.30;107847;1267;24355;-77
2024/01/30 04:20:58;;;;;;;133.00;48.70;;;;;;;-0.40;83.91;101858.60;107970;1270;22609;-76
2024/01/30 04:23:49;;;;;;;138.30;53.90;;;;;;;-0.41;83.74;101860.91;107959;1271;23261;-76
2024/01/30 04:26:40;;;;;;;138.50;54.20;;;;;;;-0.44;83.83;101862.29;107954;1271;26558;-76
2024/01/30 04:29:32;;;;;;;105.00;38.60;;;;;;;-0.46;83.96;101860.69;107948;1271;22687;-77
2024/01/30 04:32:23;;;;;;;89.30;35.20;;;;;;;-0.47;83.98;101866.40;107993;1263;23007;-77
2024/01/30 04:35:14;;;;;;;80.50;31.90;;;;;;;-0.49;83.79;101870.20;107913;1270;22520;-75
2024/01/30 04:38:05;;;;;;;72.60;29.20;;;;;;;-0.52;83.74;101873.90;107942;1271;27764;-76
2024/01/30 04:40:56;;;;;;;69.30;26.00;;;;;;;-0.55;83.73;101871.65;107759;1272;22766;-75
2024/01/30 04:43:47;;;;;;;69.10;27.00;;;;;;;-0.58;83.84;101871.99;107799;1271;22553;-75
2024/01/30 04:46:38;;;;;;;57.50;24.60;;;;;;;-0.59;83.94;101870.02;107874;1271;26654;-75
2024/01/30 04:49:30;;;;;;;73.60;26.70;;;;;;;-0.61;83.96;101870.98;107814;1271;22536;-76
2024/01/30 04:52:21;;;;;;;66.40;24.20;;;;;;;-0.64;83.93;101871.41;107773;1270;22547;-77
2024/01/30 04:55:12;;;;;;;68.20;26.10;;;;;;;-0.68;84.02;101867.11;107912;1271;24396;-76
2024/01/30 04:58:03;;;;;;;70.40;25.60;;;;;;;-0.70;84.16;101866.98;107759;1271;22703;-76
2024/01/30 05:00:54;;;;;;;65.70;23.00;;;;;;;-0.71;84.18;101866.97;107671;1271;22524;-77
2024/01/30 05:03:45;;;;;;;58.80;22.00;;;;;;;-0.73;84.18;101868.03;107668;1271;22711;-76
2024/01/30 05:06:36;;;;;;;59.50;21.20;;;;;;;-0.75;84.29;101870.42;107902;1271;22617;-76
2024/01/30 05:09:28;;;;;;;64.00;22.80;;;;;;;-0.74;84.32;101876.30;107644;1271;22531;-76
2024/01/30 05:12:19;;;;;;;71.60;22.40;;;;;;;-0.78;84.19;101881.73;107991;1266;23038;-76
2024/01/30 05:15:11;;;;;;;60.10;20.70;;;;;;;-0.82;84.33;101879.61;107802;1267;22772;-76
2024/01/30 05:18:02;;;;;;;57.20;21.30;;;;;;;-0.82;84.34;101873.80;107933;1266;22644;-75
2024/01/30 05:20:54;;;;;;;64.90;23.60;;;;;;;-0.82;84.47;101867.15;107799;1271;22667;-75
2024/01/30 05:23:45;;;;;;;60.60;21.70;;;;;;;-0.84;84.40;101864.23;107751;1259;24208;-74
2024/01/30 05:26:36;;;;;;;57.20;19.80;;;;;;;-0.83;84.59;101870.34;107984;1247;22541;-75
2024/01/30 05:29:25;;;;;;;;;;;;;;;-0.83;84.59;101871.98;107977;1266;22628;-74
2024/01/30 05:32:16;;;;;;;44.50;18.00;;;;;;;-0.84;84.58;101872.05;107881;1263;24362;-75
2024/01/30 05:35:08;;;;;;;45.90;15.80;;;;;;;-0.84;84.68;101870.63;107795;1270;24197;-78
2024/01/30 05:37:58;;;;;;;46.40;19.40;;;;;;;-0.86;84.57;101863.79;107745;1265;24094;-74
2024/01/30 05:40:49;;;;;;;47.20;19.50;;;;;;;-0.91;84.46;101867.61;107667;1271;22978;-75
2024/01/30 05:43:44;;;;;;;49.00;16.70;;;;;;;-0.94;84.65;101869.58;107697;1271;22619;-75
2024/01/30 05:46:36;;;;;;;50.70;16.80;;;;;;;-0.95;84.65;101871.13;107845;1250;22659;-78
2024/01/30 05:49:27;;;;;;;52.10;17.60;;;;;;;-0.96;84.60;101870.46;108140;1267;22827;-76
2024/01/30 05:52:18;;;;;;;46.20;17.20;;;;;;;-0.97;84.70;101868.65;108185;1270;22644;-78
2024/01/30 05:55:11;;;;;;;49.60;17.20;;;;;;;-0.97;84.74;101868.19;108122;1270;23135;-77
2024/01/30 05:58:02;;;;;;;45.50;16.90;;;;;;;-0.97;84.69;101872.48;108253;1271;23154;-77
2024/01/30 06:00:53;;;;;;;47.10;17.80;;;;;;;-0.97;84.78;101875.16;108190;1272;24181;-79
2024/01/30 06:03:44;;;;;;;44.10;16.00;;;;;;;-0.99;84.60;101880.76;108143;1262;25409;-76
2024/01/30 06:06:35;;;;;;;38.70;14.80;;;;;;;-1.04;84.44;101879.86;108217;1266;22553;-76
2024/01/30 06:09:26;;;;;;;42.80;14.40;;;;;;;-1.08;84.37;101881.38;108163;1267;22671;-79
2024/01/30 06:12:17;;;;;;;38.90;14.50;;;;;;;-1.08;84.62;101886.67;108353;1268;22527;-76
2024/01/30 06:15:09;;;;;;;49.80;19.10;;;;;;;-1.08;84.54;101881.05;108002;1263;23001;-75
2024/01/30 06:18:01;;;;;;;45.20;17.80;;;;;;;-1.11;84.45;101884.19;107895;1271;22572;-76
2024/01/30 06:20:52;;;;;;;40.80;16.40;;;;;;;-1.15;84.54;101881.67;108499;1264;23288;-77
2024/01/30 06:23:43;;;;;;;46.10;17.00;;;;;;;-1.14;84.62;101887.04;108043;1271;24347;-79
2024/01/30 06:26:35;;;;;;;43.70;15.70;;;;;;;-1.17;84.47;101882.42;108293;1270;22561;-78
2024/01/30 06:29:27;;;;;;;41.20;16.20;;;;;;;-1.21;84.43;101881.87;108547;1263;22627;-78
2024/01/30 06:32:18;;;;;;;43.50;15.40;;;;;;;-1.24;84.47;101881.65;108033;1271;24232;-76
2024/01/30 06:35:10;;;;;;;40.60;16.00;;;;;;;-1.25;84.76;101879.04;107884;1271;22575;-78
2024/01/30 06:38:01;;;;;;;40.00;16.30;;;;;;;-1.25;84.73;101882.86;107832;1271;22577;-77
2024/01/30 06:40:52;;;;;;;44.30;15.80;;;;;;;-1.25;84.84;101884.75;107925;1271;22702;-77
2024/01/30 06:43:45;;;;;;;40.60;16.40;;;;;;;-1.24;84.77;101886.65;107921;1271;25322;-77
2024/01/30 06:46:35;;;;;;;42.40;15.20;;;;;;;-1.23;84.98;101890.67;107901;1271;22610;-77
2024/01/30 06:49:27;;;;;;;44.10;16.80;;;;;;;-1.21;84.91;101883.35;108001;1268;22604;-77
2024/01/30 06:52:18;;;;;;;57.10;18.10;;;;;;;-1.21;85.04;101886.58;107999;1264;22728;-76
2024/01/30 06:55:10;;;;;;;65.00;22.00;;;;;;;-1.20;84.98;101884.23;107975;1266;23345;-78
2024/01/30 06:58:01;;;;;;;63.00;21.30;;;;;;;-1.18;85.05;101885.05;107895;1270;24438;-77
2024/01/30 07:00:52;;;;;;;61.30;21.50;;;;;;;-1.17;85.16;101882.27;108101;1270;22590;-77
2024/01/30 07:03:43;;;;;;;67.50;23.90;;;;;;;-1.15;85.21;101883.39;107996;1266;22640;-76
2024/01/30 07:06:34;;;;;;;106.70;42.80;;;;;;;-1.13;85.22;101886.64;108045;1266;25597;-77
2024/01/30 07:09:25;;;;;;;191.20;76.40;;;;;;;-1.13;85.33;101891.67;108124;1270;22776;-76
2024/01/30 07:12:16;;;;;;;202.30;83.20;;;;;;;-1.12;85.38;101891.52;108193;1265;22551;-76
2024/01/30 07:15:09;;;;;;;201.50;83.70;;;;;;;-1.12;85.53;101893.41;108098;1268;22824;-75
2024/01/30 07:17:59;;;;;;;180.50;71.30;;;;;;;-1.09;85.56;101889.17;108088;1264;25521;-76
2024/01/30 07:20:50;;;;;;;159.70;63.60;;;;;;;-1.05;85.61;101889.71;108128;1269;22714;-77
2024/01/30 07:23:41;;;;;;;144.60;56.20;;;;;;;-1.03;85.59;101890.61;108281;1256;22640;-77
2024/01/30 07:26:32;;;;;;;94.80;39.10;;;;;;;-1.02;85.79;101887.77;108078;1256;22680;-76
2024/01/30 07:29:24;;;;;;;79.10;32.60;;;;;;;-1.00;85.89;101888.50;107985;1271;25466;-76
2024/01/30 07:32:15;;;;;;;70.80;27.00;;;;;;;-0.98;86.08;101883.05;108075;1260;25304;-76
2024/01/30 07:35:07;;;;;;;61.90;22.40;;;;;;;-0.95;86.31;101879.52;108050;1270;24465;-78
2024/01/30 07:37:58;;;;;;;51.70;19.90;;;;;;;-0.90;86.61;101882.36;107895;1260;24362;-77
2024/01/30 07:40:50;;;;;;;40.60;13.50;;;;;;;-0.81;87.03;101885.27;108166;1271;23507;-77
2024/01/30 07:43:42;;;;;;;33.30;11.60;;;;;;;-0.72;87.22;101886.06;107825;1271;22753;-77
2024/01/30 07:46:33;;;;;;;27.60;9.10;;;;;;;-0.62;87.39;101885.70;108085;1271;24380;-77
2024/01/30 07:49:25;;;;;;;26.70;8.10;;;;;;;-0.49;87.72;101890.98;108028;1256;23007;-76
2024/01/30 07:52:16;;;;;;;27.80;6.80;;;;;;;-0.36;87.57;101893.31;108491;1269;22689;-77
2024/01/30 07:55:08;;;;;;;23.70;5.60;;;;;;;-0.22;87.74;101892.62;108102;1270;22765;-77
2024/01/30 07:58:00;;;;;;;21.30;6.40;;;;;;;-0.11;87.53;101891.64;107972;1271;25651;-77
2024/01/30 08:00:52;;;;;;;19.40;4.70;;;;;;;0.01;87.72;101889.11;108370;1270;26507;-76
2024/01/30 08:03:43;;;;;;;16.60;4.40;;;;;;;0.18;87.61;101887.23;107921;1267;22871;-77
2024/01/30 08:06:35;;;;;;;18.70;4.30;;;;;;;0.33;87.52;101887.80;107987;1267;23557;-77
2024/01/30 08:09:26;;;;;;;21.80;4.70;;;;;;;0.47;87.23;101885.42;108236;1271;22685;-78
2024/01/30 08:12:17;;;;;;;22.30;4.50;;;;;;;0.63;87.21;101882.97;108072;1271;23505;-76
2024/01/30 08:15:10;;;;;;;16.00;3.40;;;;;;;0.77;87.04;101880.34;107837;1267;22517;-78
2024/01/30 08:18:03;;;;;;;13.50;3.30;;;;;;;0.90;86.91;101872.48;108317;1257;23090;-78
2024/01/30 08:20:54;;;;;;;16.10;3.60;;;;;;;1.02;86.81;101876.88;108014;1264;22890;-78
2024/01/30 08:23:45;;;;;;;16.30;3.70;;;;;;;1.18;86.69;101876.60;108036;1266;22688;-79
2024/01/30 08:26:36;;;;;;;14.80;4.20;;;;;;;1.35;86.37;101877.02;108094;1269;22805;-78
2024/01/30 08:29:28;;;;;;;15.90;2.80;;;;;;;1.53;86.18;101875.88;108234;1270;26000;-79
2024/01/30 08:32:19;;;;;;;14.30;3.60;;;;;;;1.73;86.03;101873.39;108051;1263;24216;-79
2024/01/30 08:35:13;;;;;;;13.90;2.50;;;;;;;1.89;85.71;101871.64;108035;1263;22638;-78
2024/01/30 08:38:05;;;;;;;16.30;2.90;;;;;;;2.04;85.49;101869.73;107933;1271;24223;-78
2024/01/30 08:40:56;;;;;;;13.30;3.20;;;;;;;2.19;85.14;101870.79;107910;1260;22545;-77
2024/01/30 08:43:47;;;;;;;14.00;3.40;;;;;;;2.31;84.84;101866.77;107951;1272;122706;-78
2024/01/30 08:46:38;;;;;;;13.90;3.50;;;;;;;2.43;84.76;101867.48;107943;1268;22527;-78
2024/01/30 08:49:29;;;;;;;12.70;2.60;;;;;;;2.59;84.27;101868.44;108032;1266;24103;-76
2024/01/30 08:52:21;;;;;;;16.20;3.00;;;;;;;2.75;83.96;101865.45;108075;1268;22534;-76
2024/01/30 08:55:12;;;;;;;15.60;3.30;;;;;;;2.88;83.78;101869.05;108083;1265;22687;-78
2024/01/30 08:58:04;;;;;;;11.80;3.20;;;;;;;3.04;83.42;101864.08;108078;1271;25357;-76
2024/01/30 09:00:55;;;;;;;13.80;2.30;;;;;;;3.20;83.09;101864.53;111048;1268;22270;-77
2024/01/30 09:03:46;;;;;;;;;;;;;;;3.32;82.59;101865.66;111063;1271;22377;-76
2024/01/30 09:06:39;;;;;;;16.20;3.60;;;;;;;3.50;81.87;101864.77;111058;1268;22228;-76
2024/01/30 09:09:30;;;;;;;13.10;2.50;;;;;;;3.65;81.73;101867.78;110971;1264;22317;-76
2024/01/30 09:12:20;;;;;;;11.40;2.60;;;;;;;3.81;81.36;101865.11;111070;1269;22167;-77
2024/01/30 09:15:10;;;;;;;;;;;;;;;3.93;81.02;101866.39;111162;1267;22374;-77
2024/01/30 09:18:01;;;;;;;11.10;2.20;;;;;;;4.04;80.52;101865.91;111093;1268;22057;-76
2024/01/30 09:20:51;;;;;;;14.70;2.60;;;;;;;4.14;80.57;101866.69;111036;1267;22162;-75
2024/01/30 09:23:42;;;;;;;12.60;2.30;;;;;;;4.24;80.41;101868.75;111054;1267;22485;-77
2024/01/30 09:26:33;;;;;;;17.00;2.80;;;;;;;4.36;80.05;101863.52;111084;1263;22151;-75
2024/01/30 09:29:24;;;;;;;10.50;2.50;;;;;;;4.48;79.88;101859.62;111146;1269;22612;-76
2024/01/30 09:32:14;;;;;;;11.90;2.50;;;;;;;4.57;79.60;101862.91;111031;1266;22207;-77
2024/01/30 09:35:06;;;;;;;12.80;2.30;;;;;;;4.65;79.44;101864.47;111034;1271;22228;-78
2024/01/30 09:37:57;;;;;;;10.90;2.90;;;;;;;4.77;78.84;101855.11;111079;1271;22996;-77
2024/01/30 09:40:55;;;;;;;13.00;2.50;;;;;;;4.87;77.95;101856.26;110945;1272;22711;-77
2024/01/30 09:43:51;;;;;;;11.50;2.30;;;;;;;5.00;77.95;101856.21;111063;1271;22317;-77
2024/01/30 09:46:43;;;;;;;10.70;2.10;;;;;;;5.09;77.38;101856.64;111069;1259;22260;-77
2024/01/30 09:49:35;;;;;;;13.70;2.30;;;;;;;5.15;77.30;101850.60;110921;1272;22155;-76
2024/01/30 09:52:25;;;;;;;9.70;2.10;;;;;;;5.26;76.74;101850.23;111030;1265;22190;-77
2024/01/30 09:55:16;;;;;;;10.00;1.50;;;;;;;5.34;76.38;101848.84;111049;1271;22275;-77
2024/01/30 09:58:08;;;;;;;12.00;2.20;;;;;;;5.41;75.88;101847.61;111055;1271;22176;-80
2024/01/30 10:00:59;;;;;;;11.90;2.10;;;;;;;5.52;75.68;101843.42;111036;1264;22162;-76
2024/01/30 10:03:51;;;;;;;11.80;1.90;;;;;;;5.61;75.46;101839.33;111117;1270;22128;-77
2024/01/30 10:06:42;;;;;;;11.30;1.90;;;;;;;5.66;75.04;101839.75;111092;1266;22220;-77
2024/01/30 10:09:35;;;;;;;13.90;2.10;;;;;;;5.73;75.42;101833.22;111093;1271;22220;-76
2024/01/30 10:12:30;;;;;;;12.10;2.10;;;;;;;5.80;74.93;101824.77;110918;1269;22118;-77
2024/01/30 10:15:22;;;;;;;11.70;2.50;;;;;;;5.91;74.40;101821.21;111045;1267;22155;-76
2024/01/30 10:18:13;;;;;;;10.10;1.40;;;;;;;6.03;73.66;101820.80;111096;1267;22102;-77
2024/01/30 10:21:04;;;;;;;6.60;1.50;;;;;;;6.13;72.74;101817.77;111113;1265;22325;-77
2024/01/30 10:23:53;;;;;;;;;;;;;;;6.25;72.62;101815.03;111053;1265;22445;-76
2024/01/30 10:26:46;;;;;;;10.20;2.00;;;;;;;6.34;72.15;101813.91;111055;1268;22261;-78
2024/01/30 10:29:38;;;;;;;10.30;1.60;;;;;;;6.41;72.20;101812.18;111077;1259;22193;-76
2024/01/30 10:32:29;;;;;;;12.40;2.00;;;;;;;6.49;72.01;101814.23;111119;1264;22719;-77
2024/01/30 10:35:20;;;;;;;10.30;2.20;;;;;;;6.56;71.90;101811.13;110882;1263;22192;-77
2024/01/30 10:38:14;;;;;;;11.60;2.00;;;;;;;6.61;71.43;101811.23;111004;1263;22614;-78
2024/01/30 10:41:07;;;;;;;14.30;2.50;;;;;;;6.68;70.73;101809.42;111070;1271;22204;-80
2024/01/30 10:44:03;;;;;;;11.70;1.80;;;;;;;6.79;70.62;101801.12;110913;1271;22163;-76
2024/01/30 10:47:04;;;;;;;9.50;1.80;;;;;;;6.85;71.06;101795.24;110926;1272;23404;-77
2024/01/30 10:49:54;;;;;;;;;;;;;;;6.90;70.21;101793.04;110915;1271;22214;-78
2024/01/30 10:52:45;;;;;;;13.10;1.60;;;;;;;6.95;69.59;101793.14;110847;1271;22186;-76
2024/01/30 10:55:37;;;;;;;12.80;2.10;;;;;;;7.02;68.70;101794.70;110908;1271;22130;-76
2024/01/30 10:58:29;;;;;;;8.60;1.70;;;;;;;7.13;68.98;101791.14;111075;1271;22174;-77
2024/01/30 11:01:22;;;;;;;10.50;1.90;;;;;;;7.19;68.56;101787.96;111137;1267;22238;-77
2024/01/30 11:04:13;;;;;;;10.20;1.80;;;;;;;7.27;68.40;101786.01;111056;1268;22223;-77
2024/01/30 11:07:14;;;;;;;9.70;2.10;;;;;;;7.31;68.21;101781.41;110911;1268;22118;-77
2024/01/30 11:10:09;;;;;;;9.30;1.70;;;;;;;7.42;67.45;101778.18;111125;1262;22498;-78
2024/01/30 11:12:59;;;;;;;10.00;2.20;;;;;;;7.49;66.94;101773.88;111055;1271;22174;-76
2024/01/30 11:15:51;;;;;;;9.10;2.10;;;;;;;7.50;67.03;101772.72;111139;1269;22189;-77
2024/01/30 11:18:42;;;;;;;13.00;2.60;;;;;;;7.50;66.54;101770.10;111102;1269;22158;-77
2024/01/30 11:21:33;;;;;;;8.60;1.90;;;;;;;7.51;66.23;101764.92;111045;1269;22219;-77
2024/01/30 11:24:24;;;;;;;9.30;1.90;;;;;;;7.54;66.52;101764.56;111080;1269;22285;-77
2024/01/30 11:27:16;;;;;;;10.00;1.70;;;;;;;7.59;66.10;101763.38;111054;1270;22355;-77
2024/01/30 11:30:08;;;;;;;10.70;2.40;;;;;;;7.68;65.85;101757.90;110978;1268;22948;-78
2024/01/30 11:33:11;;;;;;;13.00;2.10;;;;;;;7.76;65.60;101756.58;111138;1265;22134;-79
2024/01/30 11:36:02;;;;;;;9.00;1.90;;;;;;;7.85;65.16;101754.73;111056;1271;22090;-76
2024/01/30 11:38:53;;;;;;;14.20;2.10;;;;;;;7.93;65.10;101749.84;111033;1265;23203;-77
2024/01/30 11:41:44;;;;;;;10.30;2.00;;;;;;;8.00;64.98;101744.00;111040;1268;22191;-76
2024/01/30 11:44:35;;;;;;;12.20;1.90;;;;;;;8.08;63.92;101741.38;111059;1267;22263;-77
2024/01/30 11:47:26;;;;;;;9.90;2.00;;;;;;;8.14;63.83;101739.67;111051;1263;23274;-80
2024/01/30 11:50:18;;;;;;;8.90;1.70;;;;;;;8.20;64.09;101729.93;111036;1263;22256;-77
2024/01/30 11:53:10;;;;;;;13.00;2.50;;;;;;;8.27;63.94;101725.23;111034;1263;22084;-77
2024/01/30 11:56:01;;;;;;;9.80;2.00;;;;;;;8.35;62.85;101728.87;111059;1267;22233;-77
2024/01/30 11:58:53;;;;;;;11.90;2.30;;;;;;;8.42;63.51;101724.67;110917;1272;22259;-77
2024/01/30 12:01:44;;;;;;;12.50;2.50;;;;;;;8.45;63.11;101718.25;111060;1271;22840;-76
2024/01/30 12:04:35;;;;;;;9.40;1.50;;;;;;;8.49;62.88;101713.00;110937;1271;22153;-75
2024/01/30 12:07:26;;;;;;;9.70;1.80;;;;;;;8.56;62.86;101713.02;111035;1268;23086;-76
2024/01/30 12:10:17;;;;;;;9.90;1.90;;;;;;;8.61;62.53;101709.01;111042;1271;23094;-77
2024/01/30 12:13:08;;;;;;;12.10;2.60;;;;;;;8.68;62.55;101703.05;111033;1271;22432;-77
2024/01/30 12:15:59;;;;;;;14.10;2.40;;;;;;;8.75;61.77;101702.83;111059;1259;22227;-77
2024/01/30 12:18:50;;;;;;;11.60;1.80;;;;;;;8.77;61.94;101696.95;111032;1271;22155;-77
2024/01/30 12:21:41;;;;;;;10.70;1.90;;;;;;;8.81;61.64;101696.88;111003;1267;22205;-76
2024/01/30 12:24:33;;;;;;;8.90;2.20;;;;;;;8.85;61.42;101697.42;110949;1268;22228;-76
2024/01/30 12:27:24;;;;;;;9.10;2.00;;;;;;;8.88;60.63;101693.30;110879;1268;23011;-76
2024/01/30 12:30:16;;;;;;;10.50;1.90;;;;;;;8.93;60.67;101688.24;110954;1271;22919;-77
2024/01/30 12:33:09;;;;;;;12.70;2.90;;;;;;;8.98;60.35;101684.41;111064;1269;22752;-77
2024/01/30 12:36:05;;;;;;;10.70;2.00;;;;;;;9.02;60.36;101684.95;111087;1270;22163;-79
2024/01/30 12:38:58;;;;;;;11.50;2.50;;;;;;;9.04;60.24;101688.09;111087;1269;22340;-78
2024/01/30 12:41:49;;;;;;;10.20;2.90;;;;;;;9.07;60.13;101681.88;110804;1270;22308;-78
2024/01/30 12:44:40;;;;;;;12.10;2.20;;;;;;;9.10;60.04;101677.91;110860;1269;22119;-78
2024/01/30 12:47:31;;;;;;;12.70;2.00;;;;;;;9.11;59.75;101671.11;110812;1272;22202;-77
2024/01/30 12:50:22;;;;;;;9.90;2.30;;;;;;;9.09;59.82;101671.70;110836;1264;22265;-77
2024/01/30 12:53:13;;;;;;;9.80;2.00;;;;;;;9.09;59.54;101671.57;110893;1265;22389;-78
2024/01/30 12:56:04;;;;;;;8.50;1.70;;;;;;;9.07;59.26;101670.65;110830;1272;22330;-77
2024/01/30 12:58:55;;;;;;;9.10;2.20;;;;;;;9.09;58.74;101670.53;110775;1273;22260;-77
2024/01/30 13:01:46;;;;;;;10.60;1.90;;;;;;;9.08;58.23;101662.04;110782;1273;22517;-77